createdAt,value
2023-01-09T00:01:03.651Z,96209.63
2023-01-09T00:06:04.900Z,96205.59
2023-01-09T00:11:06.250Z,96177.28
2023-01-09T00:16:07.566Z,96165.41
2023-01-09T00:21:08.835Z,96170.94
2023-01-09T00:26:10.210Z,96157.00
2023-01-09T00:31:11.450Z,96147.34
2023-01-09T00:36:12.693Z,96160.16
2023-01-09T00:41:13.995Z,96146.13
2023-01-09T00:46:15.369Z,96142.38
2023-01-09T00:51:16.642Z,96138.16
2023-01-09T00:56:17.883Z,96144.22
2023-01-09T01:01:19.243Z,96131.09
2023-01-09T01:06:39.529Z,96117.94
2023-01-09T01:11:40.756Z,96114.91
2023-01-09T01:16:42.093Z,96129.53
2023-01-09T01:21:43.395Z,96125.59
2023-01-09T01:26:44.689Z,96134.34
2023-01-09T01:31:45.964Z,96141.72
2023-01-09T01:36:47.241Z,96147.97
2023-01-09T01:41:48.524Z,96150.69
2023-01-09T01:46:49.752Z,96162.00
2023-01-09T01:51:51.040Z,96155.19
2023-01-09T01:56:53.694Z,96136.84
2023-01-09T02:01:55.035Z,96129.81
2023-01-09T02:06:56.441Z,96121.66
2023-01-09T02:11:57.650Z,96117.63
2023-01-09T02:16:58.868Z,96134.25
2023-01-09T02:22:00.175Z,96138.66
2023-01-09T02:27:01.436Z,96135.06
2023-01-09T02:32:02.687Z,96118.13
2023-01-09T02:37:03.943Z,96118.94
2023-01-09T02:42:05.435Z,96124.66
2023-01-09T02:47:06.752Z,96116.41
2023-01-09T02:52:07.996Z,96110.44
2023-01-09T02:57:09.241Z,96102.78
2023-01-09T03:02:10.479Z,96114.22
2023-01-09T03:07:11.739Z,96100.75
2023-01-09T03:12:13.091Z,96111.13
2023-01-09T03:17:14.467Z,96093.47
2023-01-09T03:22:15.867Z,96106.88
2023-01-09T03:27:17.119Z,96103.84
2023-01-09T03:32:18.372Z,96105.16
2023-01-09T03:37:19.649Z,96113.94
2023-01-09T03:42:20.907Z,96123.31
2023-01-09T03:47:22.155Z,96112.56
2023-01-09T03:52:23.410Z,96118.31
2023-01-09T03:57:24.701Z,96125.66
2023-01-09T04:02:25.987Z,96114.94
2023-01-09T04:07:27.219Z,96114.19
2023-01-09T04:12:28.434Z,96118.06
2023-01-09T04:17:29.750Z,96131.38
2023-01-09T04:22:31.423Z,96140.38
2023-01-09T04:27:32.742Z,96140.13
2023-01-09T04:32:34.042Z,96159.09
2023-01-09T04:37:36.777Z,96156.88
2023-01-09T04:42:37.994Z,96161.88
2023-01-09T04:47:39.282Z,96168.81
2023-01-09T04:52:40.598Z,96174.88
2023-01-09T04:57:41.802Z,96181.53
2023-01-09T05:02:43.112Z,96178.75
2023-01-09T05:07:44.480Z,96186.09
2023-01-09T05:12:45.938Z,96198.59
2023-01-09T05:17:47.175Z,96192.25
2023-01-09T05:22:48.444Z,96186.88
2023-01-09T05:27:49.663Z,96193.94
2023-01-09T05:32:50.900Z,96194.56
2023-01-09T05:37:52.123Z,96193.13
2023-01-09T05:42:53.407Z,96214.63
2023-01-09T05:47:54.840Z,96211.97
2023-01-09T05:52:56.163Z,96240.09
2023-01-09T05:57:57.561Z,96254.03
2023-01-09T06:02:58.937Z,96273.59
2023-01-09T06:08:00.288Z,96269.81
2023-01-09T06:13:01.598Z,96264.84
2023-01-09T06:18:02.869Z,96276.19
2023-01-09T06:23:04.151Z,96271.81
2023-01-09T06:28:05.526Z,96268.53
2023-01-09T06:33:06.809Z,96275.13
2023-01-09T06:38:08.135Z,96266.22
2023-01-09T06:43:09.647Z,96262.53
2023-01-09T06:48:11.015Z,96260.38
2023-01-09T06:53:12.304Z,96262.97
2023-01-09T06:58:13.612Z,96272.72
2023-01-09T07:03:19.667Z,96282.81
2023-01-09T07:08:20.992Z,96300.09
2023-01-09T07:13:22.265Z,96314.44
2023-01-09T07:18:24.047Z,96318.97
2023-01-09T07:23:25.306Z,96337.38
2023-01-09T07:28:26.632Z,96340.25
2023-01-09T07:33:27.860Z,96335.84
2023-01-09T07:38:29.232Z,96360.06
2023-01-09T07:43:30.539Z,96368.06
2023-01-09T07:48:31.801Z,96383.50
2023-01-09T07:53:33.035Z,96392.16
2023-01-09T07:58:34.299Z,96411.31
2023-01-09T08:03:38.426Z,96422.78
2023-01-09T08:08:39.822Z,96429.53
2023-01-09T08:13:41.076Z,96443.81
2023-01-09T08:18:42.287Z,96451.09
2023-01-09T08:23:45.512Z,96451.78
2023-01-09T08:28:47.045Z,96458.81
2023-01-09T08:33:48.275Z,96462.94
2023-01-09T08:38:49.534Z,96460.03
2023-01-09T08:44:09.735Z,96465.47
2023-01-09T08:49:10.982Z,96471.75
2023-01-09T08:54:12.210Z,96465.88
2023-01-09T08:59:13.439Z,96467.63
2023-01-09T09:04:14.686Z,96475.69
2023-01-09T09:09:16.180Z,96487.94
2023-01-09T09:14:36.278Z,96483.38
2023-01-09T09:19:39.514Z,96499.94
2023-01-09T09:24:40.875Z,96502.00
2023-01-09T09:29:42.103Z,96504.44
2023-01-09T09:34:43.334Z,96495.09
2023-01-09T09:39:44.566Z,96502.97
2023-01-09T09:44:54.278Z,96500.75
2023-01-09T09:49:55.686Z,96480.28
2023-01-09T09:54:57.338Z,96488.25
2023-01-09T09:59:58.643Z,96484.31
2023-01-09T10:04:59.880Z,96468.75
2023-01-09T10:10:01.112Z,96466.53
2023-01-09T10:15:02.375Z,96470.78
2023-01-09T10:20:03.639Z,96489.94
2023-01-09T10:25:05.134Z,96479.59
2023-01-09T10:30:06.385Z,96476.78
2023-01-09T10:35:07.684Z,96476.19
2023-01-09T10:40:08.969Z,96478.06
2023-01-09T10:45:10.320Z,96482.91
2023-01-09T10:50:11.621Z,96478.59
2023-01-09T10:55:12.938Z,96470.50
2023-01-09T11:00:14.190Z,96460.16
2023-01-09T11:05:15.436Z,96453.13
2023-01-09T11:10:19.060Z,96463.31
2023-01-09T11:15:20.311Z,96457.69
2023-01-09T11:20:21.556Z,96463.38
2023-01-09T11:25:22.975Z,96461.53
2023-01-09T11:30:26.805Z,96458.84
2023-01-09T11:35:28.277Z,96453.81
2023-01-09T11:40:30.739Z,96460.69
2023-01-09T11:45:32.067Z,96459.78
2023-01-09T11:50:33.504Z,96458.84
2023-01-09T11:55:41.850Z,96456.19
2023-01-09T12:00:43.563Z,96450.97
2023-01-09T12:05:45.448Z,96445.81
2023-01-09T12:10:47.739Z,96453.34
2023-01-09T12:15:49.023Z,96458.69
2023-01-09T12:20:50.250Z,96457.19
2023-01-09T12:25:51.535Z,96450.06
2023-01-09T12:30:52.799Z,96454.03
2023-01-09T12:35:55.002Z,96454.75
2023-01-09T12:40:56.215Z,96449.22
2023-01-09T12:45:57.535Z,96449.91
2023-01-09T12:50:58.961Z,96453.97
2023-01-09T12:56:00.407Z,96459.19
2023-01-09T13:06:26.564Z,96458.16
2023-01-09T13:11:27.803Z,96440.06
2023-01-09T13:16:29.139Z,96452.69
2023-01-09T13:21:30.654Z,96457.16
2023-01-09T13:26:32.042Z,96453.75
2023-01-09T13:31:33.405Z,96454.53
2023-01-09T13:36:34.824Z,96445.44
2023-01-09T13:41:54.946Z,96453.72
2023-01-09T13:46:56.247Z,96453.84
2023-01-09T13:51:58.171Z,96448.97
2023-01-09T13:56:59.480Z,96449.38
2023-01-09T14:02:00.745Z,96448.47
2023-01-09T14:07:01.993Z,96455.13
2023-01-09T14:12:03.287Z,96453.19
2023-01-09T14:17:04.529Z,96437.88
2023-01-09T14:22:05.806Z,96434.38
2023-01-09T14:27:07.063Z,96448.50
2023-01-09T14:32:08.296Z,96442.13
2023-01-09T14:37:09.830Z,96442.03
2023-01-09T14:42:15.953Z,96440.63
2023-01-09T14:47:17.268Z,96462.00
2023-01-09T14:52:18.601Z,96469.72
2023-01-09T14:57:19.834Z,96471.47
2023-01-09T15:02:22.878Z,96480.03
2023-01-09T15:07:26.306Z,96480.56
2023-01-09T15:12:27.613Z,96477.28
2023-01-09T15:17:28.917Z,96478.13
2023-01-09T15:22:30.207Z,96485.13
2023-01-09T15:27:31.609Z,96484.63
2023-01-09T15:32:32.998Z,96496.00
2023-01-09T15:37:34.383Z,96505.19
2023-01-09T15:42:56.442Z,96510.00
2023-01-09T15:47:59.039Z,96515.78
2023-01-09T15:53:00.332Z,96519.44
2023-01-09T15:58:01.611Z,96533.25
2023-01-09T16:03:12.118Z,96532.34
2023-01-09T16:08:13.413Z,96548.28
2023-01-09T16:13:14.710Z,96558.88
2023-01-09T16:18:15.928Z,96559.94
2023-01-09T16:23:17.201Z,96560.19
2023-01-09T16:28:22.969Z,96574.94
2023-01-09T16:33:27.869Z,96580.59
2023-01-09T16:38:29.638Z,96582.38
2023-01-09T16:43:31.676Z,96591.19
2023-01-09T16:48:34.504Z,96598.09
2023-01-09T16:53:35.850Z,96608.91
2023-01-09T16:58:37.203Z,96606.50
2023-01-09T17:03:38.528Z,96621.25
2023-01-09T17:08:40.001Z,96633.94
2023-01-09T17:13:41.230Z,96645.19
2023-01-09T17:18:43.017Z,96648.88
2023-01-09T17:23:44.383Z,96649.56
2023-01-09T17:28:45.721Z,96635.34
2023-01-09T17:33:47.025Z,96645.19
2023-01-09T17:38:54.623Z,96662.31
2023-01-09T17:43:55.917Z,96677.81
2023-01-09T17:48:57.217Z,96681.13
2023-01-09T17:53:58.595Z,96686.56
2023-01-09T17:58:59.893Z,96700.78
2023-01-09T18:04:01.118Z,96711.09
2023-01-09T18:09:03.383Z,96727.38
2023-01-09T18:14:04.704Z,96748.88
2023-01-09T18:19:06.114Z,96746.47
2023-01-09T18:24:07.374Z,96766.22
2023-01-09T18:29:09.222Z,96760.28
2023-01-09T18:34:10.465Z,96764.56
2023-01-09T18:39:11.669Z,96773.03
2023-01-09T18:49:31.051Z,96786.84
2023-01-09T18:54:32.347Z,96793.97
2023-01-09T18:59:33.578Z,96805.84
2023-01-09T19:04:34.797Z,96820.22
2023-01-09T19:09:36.191Z,96827.31
2023-01-09T19:14:37.394Z,96831.06
2023-01-09T19:19:38.673Z,96834.81
2023-01-09T19:24:40.015Z,96850.91
2023-01-09T19:29:41.395Z,96858.19
2023-01-09T19:34:42.714Z,96869.09
2023-01-09T19:39:44.028Z,96864.63
2023-01-09T19:44:46.182Z,96856.00
2023-01-09T19:49:47.574Z,96867.88
2023-01-09T19:54:48.891Z,96865.56
2023-01-09T19:59:50.289Z,96871.38
2023-01-09T20:04:51.597Z,96870.44
2023-01-09T20:09:52.850Z,96868.16
2023-01-09T20:14:54.077Z,96886.28
2023-01-09T20:19:55.281Z,96906.03
2023-01-09T20:24:56.497Z,96906.50
2023-01-09T20:29:57.761Z,96919.13
2023-01-09T20:34:59.071Z,96928.31
2023-01-09T20:40:00.333Z,96933.94
2023-01-09T20:45:01.991Z,96944.94
2023-01-09T20:50:03.261Z,96943.06
2023-01-09T20:55:04.736Z,96943.31
2023-01-09T21:00:05.964Z,96949.84
2023-01-09T21:05:07.211Z,96948.69
2023-01-09T21:10:08.501Z,96950.97
2023-01-09T21:15:11.507Z,96954.06
2023-01-09T21:20:12.945Z,96965.31
2023-01-09T21:25:15.761Z,96971.09
2023-01-09T21:30:17.245Z,96982.75
2023-01-09T21:35:18.530Z,96982.91
2023-01-09T21:40:19.834Z,96991.16
2023-01-09T21:45:39.995Z,96996.69
2023-01-09T21:50:41.408Z,97000.09
2023-01-09T21:55:42.834Z,97006.25
2023-01-09T22:00:44.243Z,97009.59
2023-01-09T22:05:45.593Z,97014.22
2023-01-09T22:10:47.252Z,97027.06
2023-01-09T22:15:49.039Z,97028.16
2023-01-09T22:20:50.644Z,97029.34
2023-01-09T22:25:53.127Z,97028.88
2023-01-09T22:30:54.565Z,97037.06
2023-01-09T22:35:57.071Z,97041.66
2023-01-09T22:40:58.347Z,97046.63
2023-01-09T22:46:00.075Z,97054.53
2023-01-09T22:51:01.488Z,97058.91
2023-01-09T22:56:02.871Z,97047.94
2023-01-09T23:01:04.172Z,97061.44
2023-01-09T23:10:10.026Z,97078.81
2023-01-09T23:15:11.641Z,97077.22
2023-01-09T23:20:12.953Z,97079.25
2023-01-09T23:25:15.623Z,97086.03
2023-01-09T23:30:16.838Z,97093.28
2023-01-09T23:35:18.089Z,97100.66
2023-01-09T23:40:19.311Z,97112.16
2023-01-09T23:45:20.807Z,97120.19
2023-01-09T23:50:22.102Z,97129.09
2023-01-09T23:55:23.481Z,97146.81
